createdAt,value
2023-10-29T00:01:31.960Z,57.96
2023-10-29T00:03:59.015Z,58.89
2023-10-29T00:06:26.162Z,58.96
2023-10-29T00:08:53.125Z,58.87
2023-10-29T00:11:20.070Z,56.78
2023-10-29T00:13:47.071Z,57.22
2023-10-29T00:16:14.410Z,54.34
2023-10-29T00:18:41.693Z,56.43
2023-10-29T00:21:08.588Z,57.29
2023-10-29T00:23:35.596Z,58.24
2023-10-29T00:26:02.646Z,57.55
2023-10-29T00:28:29.577Z,57.60
2023-10-29T00:30:56.837Z,57.02
2023-10-29T00:33:24.498Z,57.35
2023-10-29T00:35:52.167Z,56.87
2023-10-29T00:38:19.065Z,56.75
2023-10-29T00:40:46.486Z,55.84
2023-10-29T00:43:15.445Z,55.90
2023-10-29T00:45:44.426Z,56.20
2023-10-29T00:48:13.081Z,56.89
2023-10-29T00:50:41.102Z,56.73
2023-10-29T00:53:08.408Z,56.95
2023-10-29T00:55:36.978Z,57.12
2023-10-29T00:58:05.297Z,56.31
2023-10-29T01:00:32.331Z,56.68
2023-10-29T01:02:59.457Z,57.07
2023-10-29T01:05:26.451Z,57.52
2023-10-29T01:07:53.594Z,59.46
2023-10-29T01:10:20.472Z,59.87
2023-10-29T01:12:47.556Z,59.86
2023-10-29T01:15:14.621Z,59.75
2023-10-29T01:17:43.399Z,61.17
2023-10-29T01:20:12.861Z,61.24
2023-10-29T01:22:39.800Z,62.90
2023-10-29T01:25:10.844Z,62.38
2023-10-29T01:27:38.998Z,62.84
2023-10-29T01:30:06.821Z,62.12
2023-10-29T01:32:34.139Z,61.89
2023-10-29T01:35:01.097Z,61.73
2023-10-29T01:37:27.993Z,62.08
2023-10-29T01:39:55.086Z,61.23
2023-10-29T01:42:22.436Z,61.15
2023-10-29T01:44:49.494Z,60.38
2023-10-29T01:47:16.589Z,61.07
2023-10-29T01:49:43.915Z,60.43
2023-10-29T01:52:10.814Z,60.48
2023-10-29T01:54:37.795Z,61.57
2023-10-29T01:57:06.013Z,61.40
2023-10-29T01:59:33.607Z,60.99
2023-10-29T02:02:00.576Z,60.58
2023-10-29T02:04:28.342Z,59.88
2023-10-29T02:06:55.863Z,59.67
2023-10-29T02:09:23.667Z,59.57
2023-10-29T02:11:50.595Z,59.62
2023-10-29T02:14:17.700Z,59.75
2023-10-29T02:16:44.581Z,59.54
2023-10-29T02:19:11.554Z,59.45
2023-10-29T02:21:38.547Z,59.61
2023-10-29T02:24:05.774Z,60.01
2023-10-29T02:26:32.727Z,60.78
2023-10-29T02:29:00.394Z,60.10
2023-10-29T02:31:27.505Z,59.70
2023-10-29T02:33:54.659Z,59.38
2023-10-29T02:36:22.057Z,60.56
2023-10-29T02:38:48.968Z,60.81
2023-10-29T02:41:15.909Z,61.21
2023-10-29T02:43:42.833Z,60.66
2023-10-29T02:46:11.829Z,60.13
2023-10-29T02:48:39.179Z,61.29
2023-10-29T02:51:12.250Z,60.55
2023-10-29T02:53:40.763Z,61.17
2023-10-29T02:56:07.839Z,60.56
2023-10-29T02:58:35.358Z,60.20
2023-10-29T03:01:09.174Z,60.89
2023-10-29T03:03:38.316Z,61.24
2023-10-29T03:06:06.774Z,61.61
2023-10-29T03:08:34.929Z,60.83
2023-10-29T03:11:02.364Z,61.78
2023-10-29T03:13:29.516Z,61.99
2023-10-29T03:15:57.481Z,63.27
2023-10-29T03:18:24.709Z,62.97
2023-10-29T03:20:51.766Z,62.87
2023-10-29T03:23:18.759Z,61.27
2023-10-29T03:25:46.255Z,61.58
2023-10-29T03:28:13.712Z,61.00
2023-10-29T03:30:40.664Z,60.77
2023-10-29T03:33:07.886Z,62.03
2023-10-29T03:35:34.980Z,61.47
2023-10-29T03:38:02.042Z,61.79
2023-10-29T03:40:29.073Z,62.16
2023-10-29T03:42:55.947Z,62.15
2023-10-29T03:45:22.989Z,62.58
2023-10-29T03:47:49.930Z,62.22
2023-10-29T03:50:18.557Z,62.46
2023-10-29T03:52:45.907Z,62.64
2023-10-29T03:55:12.870Z,63.20
2023-10-29T03:57:41.107Z,62.49
2023-10-29T04:00:08.433Z,62.74
2023-10-29T04:02:41.112Z,63.26
2023-10-29T04:05:10.140Z,63.93
2023-10-29T04:07:40.393Z,64.13
2023-10-29T04:10:09.143Z,64.04
2023-10-29T04:12:36.122Z,64.99
2023-10-29T04:15:06.252Z,65.07
2023-10-29T04:17:33.761Z,63.93
2023-10-29T04:20:00.681Z,63.98
2023-10-29T04:22:27.669Z,64.51
2023-10-29T04:24:54.550Z,65.77
2023-10-29T04:27:21.417Z,67.61
2023-10-29T04:29:48.394Z,66.74
2023-10-29T04:32:15.383Z,66.74
2023-10-29T04:34:42.286Z,66.46
2023-10-29T04:37:09.250Z,65.91
2023-10-29T04:39:36.140Z,66.29
2023-10-29T04:42:03.296Z,66.44
2023-10-29T04:44:30.301Z,66.66
2023-10-29T04:46:57.246Z,66.16
2023-10-29T04:49:25.324Z,66.19
2023-10-29T04:51:53.501Z,66.00
2023-10-29T04:54:21.549Z,66.55
2023-10-29T04:56:48.474Z,65.54
2023-10-29T04:59:15.398Z,64.49
2023-10-29T05:01:42.289Z,64.37
2023-10-29T05:04:09.243Z,63.06
2023-10-29T05:06:36.183Z,63.81
2023-10-29T05:09:03.102Z,62.32
2023-10-29T05:11:32.451Z,63.12
2023-10-29T05:13:59.366Z,62.29
2023-10-29T05:16:26.361Z,61.31
2023-10-29T05:18:53.361Z,60.10
2023-10-29T05:21:21.844Z,61.83
2023-10-29T05:23:48.764Z,60.92
2023-10-29T05:26:15.711Z,61.33
2023-10-29T05:28:42.647Z,59.41
2023-10-29T05:31:09.559Z,59.67
2023-10-29T05:33:37.756Z,58.60
2023-10-29T05:36:05.607Z,58.24
2023-10-29T05:38:32.562Z,58.84
2023-10-29T05:40:59.508Z,58.45
2023-10-29T05:43:26.893Z,58.89
2023-10-29T05:45:53.719Z,58.41
2023-10-29T05:48:20.685Z,60.34
2023-10-29T05:50:47.685Z,61.65
2023-10-29T05:53:14.751Z,61.78
2023-10-29T05:55:41.786Z,59.97
2023-10-29T05:58:08.667Z,59.38
2023-10-29T06:00:35.607Z,59.37
2023-10-29T06:03:02.585Z,57.16
2023-10-29T06:05:29.727Z,56.01
2023-10-29T06:07:57.487Z,56.56
2023-10-29T06:10:24.343Z,57.28
2023-10-29T06:12:51.218Z,59.09
2023-10-29T06:15:18.235Z,60.75
2023-10-29T06:17:46.305Z,60.69
2023-10-29T06:20:18.400Z,61.66
2023-10-29T06:22:46.122Z,61.69
2023-10-29T06:25:12.977Z,61.54
2023-10-29T06:27:39.928Z,60.56
2023-10-29T06:30:08.028Z,60.18
2023-10-29T06:32:35.195Z,58.71
2023-10-29T06:35:02.118Z,57.61
2023-10-29T06:37:29.055Z,57.20
2023-10-29T06:39:55.896Z,57.43
2023-10-29T06:42:22.766Z,55.67
2023-10-29T06:44:49.914Z,55.48
2023-10-29T06:47:17.095Z,54.90
2023-10-29T06:49:44.214Z,54.59
2023-10-29T06:52:11.355Z,54.18
2023-10-29T06:54:38.340Z,54.43
2023-10-29T06:57:08.332Z,52.97
2023-10-29T06:59:35.394Z,51.80
2023-10-29T07:02:02.391Z,52.40
2023-10-29T07:04:29.580Z,52.49
2023-10-29T07:06:56.650Z,50.88
2023-10-29T07:09:23.495Z,50.95
2023-10-29T07:11:50.971Z,49.56
2023-10-29T07:14:18.015Z,50.44
2023-10-29T07:16:45.337Z,50.28
2023-10-29T07:19:14.108Z,49.00
2023-10-29T07:21:42.122Z,48.16
2023-10-29T07:24:09.923Z,47.57
2023-10-29T07:26:37.060Z,47.42
2023-10-29T07:29:04.316Z,47.42
2023-10-29T07:31:32.225Z,47.09
2023-10-29T07:33:59.302Z,46.39
2023-10-29T07:36:26.217Z,46.08
2023-10-29T07:38:53.317Z,45.52
2023-10-29T07:41:20.895Z,45.41
2023-10-29T07:43:48.771Z,45.55
2023-10-29T07:46:16.099Z,44.91
2023-10-29T07:48:43.510Z,44.89
2023-10-29T07:51:11.702Z,45.36
2023-10-29T07:53:38.753Z,45.08
2023-10-29T07:56:13.288Z,46.25
2023-10-29T07:58:41.495Z,46.01
2023-10-29T08:01:16.618Z,45.95
2023-10-29T08:03:44.862Z,44.23
2023-10-29T08:06:12.880Z,43.83
2023-10-29T08:08:40.696Z,44.19
2023-10-29T08:11:07.852Z,43.32
2023-10-29T08:13:34.831Z,42.39
2023-10-29T08:16:03.898Z,42.41
2023-10-29T08:18:30.940Z,41.68
2023-10-29T08:20:57.909Z,42.10
2023-10-29T08:23:24.876Z,41.14
2023-10-29T08:25:51.799Z,41.64
2023-10-29T08:28:20.262Z,41.79
2023-10-29T08:30:50.097Z,41.26
2023-10-29T08:33:19.184Z,39.98
2023-10-29T08:35:46.651Z,39.10
2023-10-29T08:38:13.783Z,39.38
2023-10-29T08:40:40.723Z,39.04
2023-10-29T08:43:08.352Z,38.45
2023-10-29T08:45:42.152Z,38.21
2023-10-29T08:48:11.455Z,38.82
2023-10-29T08:50:38.846Z,39.49
2023-10-29T08:53:05.870Z,38.30
2023-10-29T08:55:35.269Z,39.54
2023-10-29T08:58:02.160Z,39.74
2023-10-29T09:00:38.432Z,38.69
2023-10-29T09:03:09.665Z,38.57
2023-10-29T09:05:37.235Z,38.42
2023-10-29T09:08:04.310Z,37.83
2023-10-29T09:10:31.285Z,37.45
2023-10-29T09:12:58.099Z,38.24
2023-10-29T09:15:24.965Z,36.55
2023-10-29T09:17:52.006Z,35.04
2023-10-29T09:20:19.063Z,35.90
2023-10-29T09:22:46.008Z,36.04
2023-10-29T09:25:12.894Z,35.53
2023-10-29T09:27:39.807Z,34.67
2023-10-29T09:30:08.074Z,34.21
2023-10-29T09:32:36.563Z,34.64
2023-10-29T09:35:05.945Z,33.81
2023-10-29T09:37:36.153Z,34.47
2023-10-29T09:40:04.219Z,32.55
2023-10-29T09:42:35.569Z,33.92
2023-10-29T09:45:04.960Z,34.32
2023-10-29T09:47:34.864Z,34.08
2023-10-29T09:50:02.539Z,34.87
2023-10-29T09:52:33.722Z,34.56
2023-10-29T09:55:02.203Z,33.66
2023-10-29T09:57:29.139Z,33.94
2023-10-29T09:59:56.204Z,34.02
2023-10-29T10:02:23.905Z,31.75
2023-10-29T10:04:52.380Z,32.03
2023-10-29T10:07:20.942Z,32.11
2023-10-29T10:09:55.299Z,31.69
2023-10-29T10:12:22.974Z,31.51
2023-10-29T10:14:50.980Z,30.48
2023-10-29T10:17:18.435Z,30.23
2023-10-29T10:19:45.372Z,30.24
2023-10-29T10:22:13.057Z,30.06
2023-10-29T10:24:47.548Z,30.70
2023-10-29T10:27:15.522Z,28.70
2023-10-29T10:29:42.591Z,28.83
2023-10-29T10:32:10.081Z,29.58
2023-10-29T10:34:40.088Z,28.41
2023-10-29T10:37:06.995Z,29.61
2023-10-29T10:39:34.337Z,29.18
2023-10-29T10:42:04.370Z,28.44
2023-10-29T10:44:32.277Z,29.41
2023-10-29T10:47:01.322Z,29.44
2023-10-29T10:49:32.392Z,30.24
2023-10-29T10:52:02.854Z,29.77
2023-10-29T10:54:31.044Z,29.30
2023-10-29T10:56:58.062Z,29.38
2023-10-29T10:59:25.108Z,28.41
2023-10-29T11:01:52.236Z,29.19
2023-10-29T11:04:20.648Z,29.45
2023-10-29T11:06:48.257Z,29.52
2023-10-29T11:09:16.353Z,28.71
2023-10-29T11:11:46.275Z,28.49
2023-10-29T11:14:18.212Z,28.28
2023-10-29T11:16:52.358Z,28.75
2023-10-29T11:19:35.814Z,29.25
2023-10-29T11:22:14.982Z,29.08
2023-10-29T11:24:42.308Z,29.26
2023-10-29T11:27:45.592Z,28.97
2023-10-29T11:30:17.698Z,27.37
2023-10-29T11:32:47.219Z,28.94
2023-10-29T11:35:18.040Z,27.63
2023-10-29T11:37:45.563Z,27.77
2023-10-29T11:40:24.436Z,28.35
2023-10-29T11:42:54.680Z,27.93
2023-10-29T11:45:30.599Z,27.92
2023-10-29T11:48:13.114Z,28.24
2023-10-29T11:50:41.425Z,26.98
2023-10-29T11:53:22.651Z,26.89
2023-10-29T11:55:52.352Z,27.46
2023-10-29T11:58:23.880Z,28.83
2023-10-29T12:00:50.632Z,27.65
2023-10-29T12:03:21.945Z,29.42
2023-10-29T12:05:52.695Z,28.75
2023-10-29T12:08:20.710Z,29.15
2023-10-29T12:10:51.348Z,29.74
2023-10-29T12:13:22.554Z,28.72
2023-10-29T12:15:57.318Z,28.79
2023-10-29T12:18:25.695Z,29.28
2023-10-29T12:21:05.403Z,27.63
2023-10-29T12:23:32.926Z,28.10
2023-10-29T12:26:08.205Z,28.86
2023-10-29T12:28:38.999Z,28.93
2023-10-29T12:31:09.463Z,28.37
2023-10-29T12:33:37.802Z,28.69
2023-10-29T12:36:06.530Z,29.26
2023-10-29T12:38:39.089Z,28.69
2023-10-29T12:41:09.807Z,28.39
2023-10-29T12:43:39.139Z,29.60
2023-10-29T12:46:11.238Z,28.71
2023-10-29T12:49:02.185Z,27.74
2023-10-29T12:51:36.116Z,28.32
2023-10-29T12:54:16.827Z,28.76
2023-10-29T12:56:57.589Z,28.15
2023-10-29T12:59:29.537Z,30.11
2023-10-29T13:02:01.098Z,28.67
2023-10-29T13:04:29.014Z,28.29
2023-10-29T13:06:57.401Z,28.41
2023-10-29T13:09:26.762Z,28.82
2023-10-29T13:11:54.233Z,27.99
2023-10-29T13:14:23.553Z,29.35
2023-10-29T13:16:54.366Z,28.81
2023-10-29T13:19:22.465Z,29.62
2023-10-29T13:21:53.705Z,29.53
2023-10-29T13:24:21.204Z,29.20
2023-10-29T13:26:48.744Z,29.20
2023-10-29T13:29:15.853Z,29.93
2023-10-29T13:31:44.437Z,30.43
2023-10-29T13:34:11.620Z,30.08
2023-10-29T13:36:39.177Z,30.63
2023-10-29T13:39:07.233Z,30.62
2023-10-29T13:41:35.252Z,30.30
2023-10-29T13:44:02.524Z,30.01
2023-10-29T13:46:29.928Z,29.66
2023-10-29T13:48:57.207Z,29.48
2023-10-29T13:51:24.361Z,30.83
2023-10-29T13:53:51.742Z,30.90
2023-10-29T13:56:18.729Z,31.31
2023-10-29T13:58:45.615Z,31.97
2023-10-29T14:01:20.281Z,31.22
2023-10-29T14:03:48.505Z,31.28
2023-10-29T14:06:16.622Z,32.09
2023-10-29T14:08:43.822Z,31.49
2023-10-29T14:11:11.060Z,31.89
2023-10-29T14:13:37.944Z,32.55
2023-10-29T14:16:05.030Z,32.10
2023-10-29T14:18:31.994Z,31.89
2023-10-29T14:20:59.132Z,32.85
2023-10-29T14:23:26.191Z,33.21
2023-10-29T14:25:53.060Z,33.18
2023-10-29T14:28:20.162Z,33.61
2023-10-29T14:30:47.296Z,33.94
2023-10-29T14:33:14.275Z,33.83
2023-10-29T14:35:41.327Z,34.00
2023-10-29T14:38:09.455Z,33.45
2023-10-29T14:40:36.594Z,33.35
2023-10-29T14:43:20.588Z,34.67
2023-10-29T14:45:52.888Z,34.69
2023-10-29T14:48:21.043Z,35.84
2023-10-29T14:50:49.129Z,36.64
2023-10-29T14:53:16.379Z,36.44
2023-10-29T14:55:50.198Z,37.03
2023-10-29T14:58:17.636Z,37.58
2023-10-29T15:00:45.829Z,38.66
2023-10-29T15:03:13.739Z,38.96
2023-10-29T15:05:41.039Z,38.88
2023-10-29T15:08:08.815Z,39.66
2023-10-29T15:10:35.968Z,39.48
2023-10-29T15:13:03.002Z,40.25
2023-10-29T15:15:31.930Z,39.78
2023-10-29T15:17:59.032Z,39.93
2023-10-29T15:20:28.279Z,40.34
2023-10-29T15:22:55.621Z,39.86
2023-10-29T15:25:22.714Z,40.65
2023-10-29T15:27:49.642Z,40.51
2023-10-29T15:30:16.605Z,41.13
2023-10-29T15:32:43.622Z,41.18
2023-10-29T15:35:10.814Z,41.42
2023-10-29T15:37:39.679Z,40.97
2023-10-29T15:40:07.967Z,39.97
2023-10-29T15:42:34.909Z,40.91
2023-10-29T15:45:02.038Z,41.36
2023-10-29T15:47:29.637Z,39.93
2023-10-29T15:49:56.585Z,39.84
2023-10-29T15:52:23.839Z,40.15
2023-10-29T15:54:51.159Z,40.41
2023-10-29T15:57:19.349Z,39.46
2023-10-29T15:59:46.531Z,40.63
2023-10-29T16:02:13.538Z,39.78
2023-10-29T16:04:40.622Z,39.88
2023-10-29T16:07:09.450Z,39.66
2023-10-29T16:09:36.874Z,38.97
2023-10-29T16:12:08.832Z,40.35
2023-10-29T16:14:36.584Z,39.52
2023-10-29T16:17:04.504Z,39.42
2023-10-29T16:19:31.942Z,39.70
2023-10-29T16:21:59.023Z,39.77
2023-10-29T16:24:28.182Z,39.77
2023-10-29T16:26:55.303Z,39.77
2023-10-29T16:29:22.944Z,41.11
2023-10-29T16:31:49.815Z,39.82
2023-10-29T16:34:16.742Z,39.63
2023-10-29T16:36:43.715Z,40.33
2023-10-29T16:39:11.282Z,39.56
2023-10-29T16:41:38.299Z,40.43
2023-10-29T16:44:05.242Z,40.64
2023-10-29T16:46:33.143Z,40.12
2023-10-29T16:49:02.468Z,39.66
2023-10-29T16:51:30.273Z,40.36
2023-10-29T16:53:57.460Z,41.03
2023-10-29T16:56:24.361Z,40.59
2023-10-29T16:58:51.307Z,40.29
2023-10-29T17:01:19.159Z,40.29
2023-10-29T17:03:47.162Z,40.22
2023-10-29T17:06:15.858Z,40.06
2023-10-29T17:08:43.015Z,40.71
2023-10-29T17:11:09.981Z,40.48
2023-10-29T17:13:37.116Z,39.84
2023-10-29T17:16:05.318Z,40.36
2023-10-29T17:18:32.546Z,40.45
2023-10-29T17:21:00.962Z,40.21
2023-10-29T17:23:28.510Z,40.72
2023-10-29T17:25:56.511Z,40.71
2023-10-29T17:28:23.583Z,41.54
2023-10-29T17:30:50.490Z,40.81
2023-10-29T17:33:17.531Z,41.27
2023-10-29T17:35:44.584Z,40.09
2023-10-29T17:38:11.536Z,40.12
2023-10-29T17:40:38.445Z,40.66
2023-10-29T17:43:05.478Z,40.32
2023-10-29T17:45:44.153Z,40.40
2023-10-29T17:48:11.525Z,41.07
2023-10-29T17:50:38.520Z,39.92
2023-10-29T17:53:05.540Z,39.63
2023-10-29T17:55:32.478Z,39.20
2023-10-29T17:58:01.035Z,38.92
2023-10-29T18:00:28.284Z,38.60
2023-10-29T18:02:55.517Z,40.18
2023-10-29T18:05:24.292Z,40.51
2023-10-29T18:07:51.260Z,39.99
2023-10-29T18:10:18.668Z,39.47
2023-10-29T18:12:46.089Z,39.74
2023-10-29T18:15:13.202Z,39.44
2023-10-29T18:17:40.200Z,38.99
2023-10-29T18:20:08.054Z,39.05
2023-10-29T18:22:34.965Z,39.25
2023-10-29T18:25:01.945Z,39.28
2023-10-29T18:27:28.892Z,40.27
2023-10-29T18:29:55.973Z,40.47
2023-10-29T18:32:22.907Z,40.30
2023-10-29T18:34:50.045Z,40.29
2023-10-29T18:37:17.165Z,41.37
2023-10-29T18:39:44.039Z,41.78
2023-10-29T18:42:11.046Z,41.43
2023-10-29T18:44:37.938Z,41.63
2023-10-29T18:47:05.547Z,41.33
2023-10-29T18:49:32.576Z,42.08
2023-10-29T18:51:59.450Z,42.51
2023-10-29T18:54:26.870Z,42.36
2023-10-29T18:56:54.112Z,42.39
2023-10-29T18:59:22.803Z,42.60
2023-10-29T19:01:49.937Z,42.88
2023-10-29T19:04:17.171Z,43.83
2023-10-29T19:06:44.404Z,42.93
2023-10-29T19:09:11.828Z,43.23
2023-10-29T19:11:39.458Z,43.53
2023-10-29T19:14:06.603Z,44.08
2023-10-29T19:16:33.648Z,44.47
2023-10-29T19:19:02.504Z,45.22
2023-10-29T19:21:29.817Z,45.09
2023-10-29T19:23:57.238Z,45.63
2023-10-29T19:26:24.288Z,44.97
2023-10-29T19:28:51.541Z,44.77
2023-10-29T19:31:24.018Z,45.48
2023-10-29T19:33:55.449Z,45.73
2023-10-29T19:36:22.721Z,46.62
2023-10-29T19:38:49.772Z,45.83
2023-10-29T19:41:16.648Z,46.15
2023-10-29T19:43:43.589Z,46.07
2023-10-29T19:46:11.228Z,46.28
2023-10-29T19:48:38.701Z,46.51
2023-10-29T19:51:09.275Z,47.23
2023-10-29T19:53:37.017Z,47.55
2023-10-29T19:56:07.915Z,47.10
2023-10-29T19:58:34.847Z,47.00
2023-10-29T20:01:09.467Z,46.83
2023-10-29T20:03:37.844Z,47.08
2023-10-29T20:06:08.676Z,47.56
2023-10-29T20:08:36.929Z,48.06
2023-10-29T20:11:21.792Z,48.08
2023-10-29T20:13:49.993Z,47.95
2023-10-29T20:16:16.977Z,47.91
2023-10-29T20:18:44.267Z,48.03
2023-10-29T20:21:19.201Z,48.39
2023-10-29T20:23:47.684Z,48.08
2023-10-29T20:26:16.241Z,48.77
2023-10-29T20:28:43.471Z,49.06
2023-10-29T20:31:10.596Z,48.63
2023-10-29T20:33:37.583Z,48.57
2023-10-29T20:36:05.463Z,49.70
2023-10-29T20:38:32.592Z,49.01
2023-10-29T20:40:59.584Z,49.31
2023-10-29T20:43:26.429Z,49.75
2023-10-29T20:45:54.301Z,49.78
2023-10-29T20:48:23.140Z,50.06
2023-10-29T20:50:54.822Z,49.87
2023-10-29T20:53:22.024Z,50.94
2023-10-29T20:55:48.888Z,50.84
2023-10-29T20:58:15.774Z,50.92
2023-10-29T21:00:47.560Z,50.58
2023-10-29T21:03:14.483Z,51.04
2023-10-29T21:05:41.865Z,50.53
2023-10-29T21:08:08.914Z,50.70
2023-10-29T21:10:35.823Z,50.44
2023-10-29T21:13:02.711Z,50.50
2023-10-29T21:15:29.629Z,51.28
2023-10-29T21:17:56.553Z,51.49
2023-10-29T21:20:27.594Z,51.05
2023-10-29T21:22:54.825Z,51.16
2023-10-29T21:25:21.759Z,50.91
2023-10-29T21:27:48.759Z,50.97
2023-10-29T21:30:15.778Z,51.41
2023-10-29T21:32:45.669Z,51.27
2023-10-29T21:35:12.574Z,51.83
2023-10-29T21:37:39.550Z,50.96
2023-10-29T21:40:07.352Z,51.45
2023-10-29T21:42:34.367Z,51.79
2023-10-29T21:45:01.470Z,51.94
2023-10-29T21:47:28.460Z,52.10
2023-10-29T21:49:55.398Z,52.21
2023-10-29T21:52:22.323Z,51.39
2023-10-29T21:54:51.751Z,50.26
2023-10-29T21:57:19.461Z,50.22
2023-10-29T21:59:49.215Z,50.38
2023-10-29T22:02:16.401Z,50.19
2023-10-29T22:04:43.520Z,50.51
2023-10-29T22:07:10.380Z,50.56
2023-10-29T22:09:37.572Z,50.40
2023-10-29T22:12:04.990Z,50.64
2023-10-29T22:14:32.109Z,50.28
2023-10-29T22:16:59.114Z,51.01
2023-10-29T22:19:26.143Z,51.39
2023-10-29T22:21:53.158Z,51.23
2023-10-29T22:24:20.177Z,49.99
2023-10-29T22:26:47.157Z,50.92
2023-10-29T22:29:14.031Z,51.26
2023-10-29T22:31:40.901Z,50.75
2023-10-29T22:34:07.712Z,50.37
2023-10-29T22:36:34.714Z,50.66
2023-10-29T22:39:01.660Z,50.28
2023-10-29T22:41:28.604Z,50.36
2023-10-29T22:43:55.567Z,50.57
2023-10-29T22:46:23.929Z,50.41
2023-10-29T22:48:52.317Z,51.44
2023-10-29T22:51:19.939Z,51.53
2023-10-29T22:53:47.064Z,52.02
2023-10-29T22:56:14.417Z,50.90
2023-10-29T22:58:41.406Z,51.30
2023-10-29T23:01:10.993Z,51.40
2023-10-29T23:03:38.114Z,52.79
2023-10-29T23:06:06.141Z,52.47
2023-10-29T23:08:33.496Z,52.48
2023-10-29T23:11:00.777Z,51.72
2023-10-29T23:13:27.653Z,52.04
2023-10-29T23:15:56.753Z,52.39
2023-10-29T23:18:25.686Z,53.10
2023-10-29T23:20:53.734Z,52.15
2023-10-29T23:23:20.772Z,51.67
2023-10-29T23:25:47.706Z,51.81
2023-10-29T23:28:30.223Z,52.11
2023-10-29T23:31:01.694Z,51.76
2023-10-29T23:33:28.894Z,52.72
2023-10-29T23:35:56.019Z,52.17
2023-10-29T23:38:22.940Z,51.86
2023-10-29T23:40:49.889Z,51.71
2023-10-29T23:43:16.859Z,52.49
2023-10-29T23:45:43.802Z,52.21
2023-10-29T23:48:12.415Z,52.65
2023-10-29T23:50:39.476Z,52.50
2023-10-29T23:53:07.470Z,52.55
2023-10-29T23:55:34.445Z,52.91
2023-10-29T23:58:01.692Z,52.92
